TimeMDT,TemperatureF,Dew PointF,Humidity,Sea Level PressureIn,VisibilityMPH,Wind Direction,Wind SpeedMPH,Gust SpeedMPH,PrecipitationIn,Events,Conditions,WindDirDegrees,DateUTC
12:15 AM,35.6,7.3,31,30.30,10.0,NW,5.8,-,N/A,,Clear,310,2012-10-30 06:15:00
12:35 AM,35.1,7.5,32,30.30,10.0,NW,5.8,-,N/A,,Clear,310,2012-10-30 06:35:00
12:55 AM,32.0,7.2,35,30.30,10.0,WNW,3.5,-,N/A,,Clear,300,2012-10-30 06:55:00
1:15 AM,34.3,7.3,32,30.30,10.0,NW,4.6,-,N/A,,Clear,320,2012-10-30 07:15:00
1:35 AM,30.6,7.5,38,30.29,10.0,WNW,4.6,-,N/A,,Clear,300,2012-10-30 07:35:00
1:55 AM,35.4,7.9,32,30.29,10.0,NW,8.1,-,N/A,,Clear,310,2012-10-30 07:55:00
2:15 AM,33.1,7.0,34,30.30,10.0,NW,8.1,-,N/A,,Clear,320,2012-10-30 08:15:00
2:35 AM,33.4,7.7,34,30.30,10.0,WNW,8.1,-,N/A,,Clear,300,2012-10-30 08:35:00
2:55 AM,34.3,7.7,33,30.30,10.0,West,5.8,-,N/A,,Clear,270,2012-10-30 08:55:00
3:15 AM,32.0,6.8,35,30.30,10.0,NNW,8.1,-,N/A,,Clear,330,2012-10-30 09:15:00
3:35 AM,28.2,6.3,39,30.29,10.0,NW,6.9,-,N/A,,Clear,310,2012-10-30 09:35:00
3:55 AM,27.9,7.0,41,30.29,10.0,NW,6.9,-,N/A,,Clear,310,2012-10-30 09:55:00
4:15 AM,28.8,7.2,40,30.28,10.0,North,6.9,-,N/A,,Clear,350,2012-10-30 10:15:00
4:35 AM,28.6,8.4,43,30.28,10.0,WNW,6.9,-,N/A,,Clear,300,2012-10-30 10:35:00
4:55 AM,32.0,8.4,37,30.29,10.0,Calm,Calm,-,N/A,,Clear,0,2012-10-30 10:55:00
5:15 AM,31.3,8.2,38,30.29,10.0,NNW,3.5,-,N/A,,Clear,340,2012-10-30 11:15:00
5:35 AM,27.5,7.9,44,30.30,10.0,Calm,Calm,-,N/A,,Clear,0,2012-10-30 11:35:00
5:55 AM,25.3,7.0,46,30.30,10.0,Calm,Calm,-,N/A,,Clear,0,2012-10-30 11:55:00
6:15 AM,26.8,7.7,45,30.30,10.0,NW,5.8,-,N/A,,Clear,310,2012-10-30 12:15:00
6:35 AM,27.5,8.1,44,30.30,10.0,NW,5.8,-,N/A,,Clear,320,2012-10-30 12:35:00
6:55 AM,25.9,8.1,47,30.31,10.0,NW,5.8,-,N/A,,Clear,320,2012-10-30 12:55:00
7:15 AM,24.4,7.9,49,30.32,10.0,NNW,6.9,-,N/A,,Clear,330,2012-10-30 13:15:00
7:35 AM,25.3,8.2,48,30.32,10.0,NW,6.9,-,N/A,,Clear,310,2012-10-30 13:35:00
7:55 AM,27.7,8.6,45,30.32,10.0,WNW,5.8,-,N/A,,Clear,300,2012-10-30 13:55:00
8:15 AM,31.1,8.6,39,30.32,10.0,NNW,5.8,-,N/A,,Clear,330,2012-10-30 14:15:00
8:35 AM,33.3,8.2,35,30.32,10.0,NNW,5.8,-,N/A,,Clear,330,2012-10-30 14:35:00
9:15 AM,38.3,10.4,32,30.33,10.0,NNW,6.9,-,N/A,,Clear,330,2012-10-30 15:15:00
9:35 AM,42.1,11.5,29,30.33,10.0,NNW,8.1,-,N/A,,Clear,330,2012-10-30 15:35:00
9:55 AM,45.1,12.2,26,30.33,10.0,NNW,8.1,-,N/A,,Clear,340,2012-10-30 15:55:00
10:15 AM,49.6,12.9,23,30.33,10.0,North,8.1,-,N/A,,Clear,350,2012-10-30 16:15:00
10:55 AM,55.2,13.6,19,30.32,10.0,NNW,5.8,-,N/A,,Clear,340,2012-10-30 16:55:00
11:15 AM,58.8,14.0,17,30.32,10.0,NNW,6.9,-,N/A,,Clear,330,2012-10-30 17:15:00
11:35 AM,62.6,15.1,16,30.32,10.0,North,8.1,-,N/A,,Clear,350,2012-10-30 17:35:00
11:55 AM,63.7,15.8,16,30.31,10.0,North,6.9,-,N/A,,Clear,360,2012-10-30 17:55:00
12:15 PM,66.9,20.3,17,30.30,10.0,NNW,12.7,18.4,N/A,,Clear,340,2012-10-30 18:15:00
12:35 PM,68.2,18.7,15,30.29,10.0,NNW,12.7,19.6,N/A,,Clear,330,2012-10-30 18:35:00
12:55 PM,68.0,18.5,15,30.28,10.0,NNW,12.7,-,N/A,,Clear,330,2012-10-30 18:55:00
1:15 PM,68.7,18.5,15,30.26,10.0,North,8.1,17.3,N/A,,Clear,350,2012-10-30 19:15:00
1:35 PM,69.6,18.5,14,30.26,10.0,NNW,10.4,16.1,N/A,,Clear,330,2012-10-30 19:35:00
1:55 PM,70.3,18.9,14,30.24,10.0,WNW,8.1,-,N/A,,Clear,300,2012-10-30 19:55:00
2:15 PM,71.1,18.5,14,30.23,10.0,NW,10.4,-,N/A,,Clear,320,2012-10-30 20:15:00
2:35 PM,71.6,18.1,13,30.23,10.0,NNW,9.2,-,N/A,,Clear,330,2012-10-30 20:35:00
2:55 PM,71.8,17.4,13,30.22,10.0,NNE,12.7,16.1,N/A,,Clear,20,2012-10-30 20:55:00
3:15 PM,71.6,17.6,13,30.22,10.0,NNE,9.2,16.1,N/A,,Clear,30,2012-10-30 21:15:00
3:35 PM,71.6,17.6,13,30.21,10.0,North,11.5,16.1,N/A,,Clear,10,2012-10-30 21:35:00
3:55 PM,71.6,17.4,13,30.21,10.0,North,13.8,-,N/A,,Clear,360,2012-10-30 21:55:00
4:15 PM,71.1,17.1,13,30.21,10.0,North,11.5,17.3,N/A,,Clear,360,2012-10-30 22:15:00
4:35 PM,70.5,16.7,13,30.21,10.0,North,12.7,17.3,N/A,,Clear,10,2012-10-30 22:35:00
4:55 PM,70.2,16.5,13,30.21,10.0,North,12.7,17.3,N/A,,Clear,360,2012-10-30 22:55:00
5:15 PM,69.1,15.6,13,30.21,10.0,North,8.1,-,N/A,,Clear,10,2012-10-30 23:15:00
5:35 PM,68.4,15.3,13,30.21,10.0,North,9.2,-,N/A,,Clear,10,2012-10-30 23:35:00
6:15 PM,63.9,14.7,15,30.21,10.0,North,4.6,-,N/A,,Clear,360,2012-10-31 00:15:00
6:35 PM,56.7,14.5,19,30.21,10.0,NW,6.9,-,N/A,,Clear,310,2012-10-31 00:35:00
6:55 PM,55.2,14.9,20,30.22,10.0,NW,6.9,-,N/A,,Clear,320,2012-10-31 00:55:00
7:15 PM,54.9,15.1,21,30.23,10.0,NW,6.9,-,N/A,,Clear,310,2012-10-31 01:15:00
7:35 PM,53.8,15.6,22,30.23,10.0,WNW,8.1,-,N/A,,Clear,290,2012-10-31 01:35:00
7:55 PM,49.5,15.4,26,30.24,10.0,NW,4.6,-,N/A,,Clear,320,2012-10-31 01:55:00
8:15 PM,49.5,15.1,25,30.24,10.0,WNW,4.6,-,N/A,,Clear,290,2012-10-31 02:15:00
8:35 PM,48.0,16.0,28,30.24,10.0,North,4.6,-,N/A,,Clear,350,2012-10-31 02:35:00
8:55 PM,48.4,16.3,28,30.24,10.0,North,4.6,-,N/A,,Clear,350,2012-10-31 02:55:00
9:15 PM,48.9,16.7,28,30.24,10.0,NNW,4.6,-,N/A,,Clear,330,2012-10-31 03:15:00
9:35 PM,42.4,14.5,32,30.24,10.0,Calm,Calm,-,N/A,,Clear,0,2012-10-31 03:35:00
9:55 PM,41.4,14.2,33,30.26,10.0,Calm,Calm,-,N/A,,Clear,0,2012-10-31 03:55:00
10:15 PM,40.8,14.0,34,30.26,10.0,WNW,4.6,-,N/A,,Clear,300,2012-10-31 04:15:00
10:35 PM,41.7,14.2,33,30.26,10.0,WNW,5.8,-,N/A,,Clear,300,2012-10-31 04:35:00
10:55 PM,41.4,14.7,34,30.26,10.0,WNW,5.8,-,N/A,,Clear,300,2012-10-31 04:55:00
11:15 PM,41.7,15.4,35,30.26,10.0,WNW,5.8,-,N/A,,Clear,290,2012-10-31 05:15:00
11:35 PM,38.7,14.7,38,30.26,10.0,NW,5.8,-,N/A,,Clear,320,2012-10-31 05:35:00
11:55 PM,34.9,14.0,42,30.27,10.0,NW,5.8,-,N/A,,Clear,320,2012-10-31 05:55:00